createdAt,value
2023-03-17T00:01:20.820Z,62.99
2023-03-17T00:03:49.893Z,62.06
2023-03-17T00:06:29.319Z,62.06
2023-03-17T00:08:57.360Z,62.55
2023-03-17T00:11:25.343Z,62.49
2023-03-17T00:13:52.875Z,61.63
2023-03-17T00:16:27.058Z,61.61
2023-03-17T00:18:55.376Z,61.87
2023-03-17T00:21:28.672Z,61.95
2023-03-17T00:23:59.550Z,61.89
2023-03-17T00:26:27.063Z,61.89
2023-03-17T00:28:54.766Z,61.65
2023-03-17T00:31:24.546Z,61.36
2023-03-17T00:33:53.960Z,61.91
2023-03-17T00:36:27.966Z,61.94
2023-03-17T00:38:54.510Z,62.11
2023-03-17T00:41:21.073Z,62.19
2023-03-17T00:43:47.633Z,61.70
2023-03-17T00:46:23.441Z,62.18
2023-03-17T00:48:52.844Z,62.92
2023-03-17T00:51:19.320Z,62.97
2023-03-17T00:53:45.870Z,62.95
2023-03-17T00:56:18.279Z,63.52
2023-03-17T00:58:45.707Z,61.57
2023-03-17T01:01:12.557Z,61.67
2023-03-17T01:03:39.674Z,62.51
2023-03-17T01:06:11.013Z,63.45
2023-03-17T01:08:39.198Z,63.86
2023-03-17T01:11:06.678Z,63.23
2023-03-17T01:13:34.223Z,62.34
2023-03-17T01:16:01.269Z,62.08
2023-03-17T01:18:27.826Z,62.13
2023-03-17T01:20:54.644Z,62.65
2023-03-17T01:23:22.163Z,62.53
2023-03-17T01:25:49.147Z,62.01
2023-03-17T01:28:20.523Z,61.87
2023-03-17T01:30:47.507Z,61.93
2023-03-17T01:33:14.807Z,62.39
2023-03-17T01:35:43.912Z,62.09
2023-03-17T01:38:10.604Z,62.60
2023-03-17T01:40:51.840Z,61.83
2023-03-17T01:43:23.228Z,61.77
2023-03-17T01:46:11.869Z,60.94
2023-03-17T01:48:42.698Z,60.67
2023-03-17T01:51:13.771Z,60.71
2023-03-17T01:53:41.907Z,60.79
2023-03-17T01:56:08.425Z,60.61
2023-03-17T01:58:35.461Z,60.98
2023-03-17T02:01:01.948Z,61.29
2023-03-17T02:03:29.822Z,61.70
2023-03-17T02:05:58.987Z,61.60
2023-03-17T02:08:26.330Z,61.53
2023-03-17T02:10:54.218Z,61.82
2023-03-17T02:13:20.870Z,61.31
2023-03-17T02:15:50.749Z,61.12
2023-03-17T02:18:20.370Z,61.13
2023-03-17T02:20:49.291Z,61.30
2023-03-17T02:23:22.413Z,61.58
2023-03-17T02:25:50.433Z,61.49
2023-03-17T02:28:23.405Z,61.58
2023-03-17T02:30:49.893Z,61.08
2023-03-17T02:33:16.427Z,61.11
2023-03-17T02:35:43.201Z,61.11
2023-03-17T02:38:12.262Z,61.53
2023-03-17T02:40:38.781Z,61.28
2023-03-17T02:43:05.690Z,60.54
2023-03-17T02:45:32.318Z,60.52
2023-03-17T02:48:00.293Z,60.34
2023-03-17T02:50:29.337Z,60.28
2023-03-17T02:52:56.052Z,60.64
2023-03-17T02:55:22.627Z,60.55
2023-03-17T02:57:49.097Z,60.36
2023-03-17T03:00:18.914Z,60.41
2023-03-17T03:02:45.437Z,60.49
2023-03-17T03:05:11.947Z,60.32
2023-03-17T03:07:38.415Z,59.92
2023-03-17T03:10:05.766Z,60.03
2023-03-17T03:12:33.265Z,60.30
2023-03-17T03:15:00.728Z,60.01
2023-03-17T03:17:27.266Z,59.71
2023-03-17T03:19:53.793Z,59.85
2023-03-17T03:22:20.396Z,60.13
2023-03-17T03:24:46.900Z,59.83
2023-03-17T03:27:13.364Z,59.49
2023-03-17T03:29:39.914Z,59.72
2023-03-17T03:32:07.256Z,59.34
2023-03-17T03:34:33.848Z,59.43
2023-03-17T03:37:00.553Z,60.08
2023-03-17T03:39:27.008Z,58.89
2023-03-17T03:41:57.306Z,60.38
2023-03-17T03:44:24.435Z,61.36
2023-03-17T03:46:54.088Z,62.61
2023-03-17T03:49:21.032Z,61.84
2023-03-17T03:51:47.495Z,61.84
2023-03-17T03:54:14.205Z,61.36
2023-03-17T03:56:40.789Z,62.07
2023-03-17T03:59:07.516Z,60.85
2023-03-17T04:01:34.001Z,61.06
2023-03-17T04:04:00.472Z,60.10
2023-03-17T04:06:27.010Z,57.61
2023-03-17T04:08:53.483Z,57.59
2023-03-17T04:11:19.976Z,57.51
2023-03-17T04:13:46.487Z,57.39
2023-03-17T04:16:13.002Z,56.71
2023-03-17T04:18:39.745Z,57.75
2023-03-17T04:21:08.293Z,57.94
2023-03-17T04:23:34.808Z,56.42
2023-03-17T04:26:01.484Z,55.77
2023-03-17T04:28:27.951Z,56.50
2023-03-17T04:30:54.500Z,57.25
2023-03-17T04:33:21.406Z,58.11
2023-03-17T04:35:48.136Z,61.40
2023-03-17T04:38:14.639Z,62.02
2023-03-17T04:40:41.563Z,61.93
2023-03-17T04:43:09.110Z,62.36
2023-03-17T04:45:36.636Z,65.44
2023-03-17T04:48:03.558Z,64.73
2023-03-17T04:50:30.315Z,62.88
2023-03-17T04:52:57.320Z,64.27
2023-03-17T04:55:23.764Z,67.47
2023-03-17T04:57:50.312Z,68.73
2023-03-17T05:00:18.139Z,69.20
2023-03-17T05:02:44.702Z,67.84
2023-03-17T05:05:12.219Z,67.10
2023-03-17T05:07:38.843Z,66.01
2023-03-17T05:10:06.575Z,64.31
2023-03-17T05:12:33.041Z,66.28
2023-03-17T05:14:59.511Z,67.88
2023-03-17T05:17:26.361Z,66.04
2023-03-17T05:19:52.797Z,66.30
2023-03-17T05:22:19.456Z,67.30
2023-03-17T05:24:45.973Z,68.76
2023-03-17T05:27:12.471Z,69.55
2023-03-17T05:29:39.199Z,69.24
2023-03-17T05:32:05.762Z,68.99
2023-03-17T05:34:32.223Z,68.10
2023-03-17T05:36:58.681Z,67.84
2023-03-17T05:39:25.176Z,67.33
2023-03-17T05:41:52.271Z,67.87
2023-03-17T05:44:19.171Z,68.93
2023-03-17T05:46:46.006Z,69.60
2023-03-17T05:49:16.229Z,70.35
2023-03-17T05:51:42.785Z,70.26
2023-03-17T05:54:09.283Z,70.22
2023-03-17T05:56:37.086Z,69.70
2023-03-17T05:59:04.559Z,72.60
2023-03-17T06:01:31.407Z,72.93
2023-03-17T06:03:58.126Z,73.48
2023-03-17T06:06:24.603Z,73.61
2023-03-17T06:08:54.372Z,73.42
2023-03-17T06:11:21.584Z,73.08
2023-03-17T06:13:48.349Z,72.92
2023-03-17T06:16:15.152Z,72.91
2023-03-17T06:18:41.699Z,74.82
2023-03-17T06:21:08.186Z,75.83
2023-03-17T06:23:34.737Z,77.36
2023-03-17T06:26:01.557Z,78.12
2023-03-17T06:28:28.081Z,77.51
2023-03-17T06:30:54.640Z,77.83
2023-03-17T06:33:24.823Z,77.34
2023-03-17T06:35:51.740Z,77.34
2023-03-17T06:38:18.302Z,75.89
2023-03-17T06:40:45.263Z,76.21
2023-03-17T06:43:12.276Z,75.81
2023-03-17T06:45:38.912Z,76.03
2023-03-17T06:48:06.958Z,74.71
2023-03-17T06:50:33.420Z,74.22
2023-03-17T06:52:59.942Z,74.77
2023-03-17T06:55:27.321Z,74.98
2023-03-17T06:57:54.217Z,75.73
2023-03-17T07:00:22.561Z,75.23
2023-03-17T07:02:49.559Z,74.49
2023-03-17T07:05:16.190Z,74.60
2023-03-17T07:07:42.664Z,73.49
2023-03-17T07:10:13.768Z,70.35
2023-03-17T07:12:40.281Z,66.80
2023-03-17T07:15:07.259Z,64.26
2023-03-17T07:17:33.691Z,68.84
2023-03-17T07:20:00.230Z,65.27
2023-03-17T07:22:27.120Z,62.78
2023-03-17T07:24:56.742Z,62.27
2023-03-17T07:27:25.261Z,62.38
2023-03-17T07:29:52.238Z,62.21
2023-03-17T07:32:19.216Z,62.71
2023-03-17T07:34:45.725Z,59.74
2023-03-17T07:37:15.488Z,58.31
2023-03-17T07:39:42.001Z,58.30
2023-03-17T07:42:12.020Z,57.99
2023-03-17T07:44:41.534Z,58.05
2023-03-17T07:47:09.099Z,58.51
2023-03-17T07:49:41.766Z,58.22
2023-03-17T07:52:10.361Z,57.51
2023-03-17T07:54:42.663Z,57.11
2023-03-17T07:57:09.418Z,57.01
2023-03-17T07:59:36.037Z,57.14
2023-03-17T08:02:02.665Z,56.97
2023-03-17T08:04:29.262Z,57.20
2023-03-17T08:06:57.353Z,56.04
2023-03-17T08:09:24.052Z,57.17
2023-03-17T08:11:50.614Z,55.76
2023-03-17T08:14:17.215Z,56.35
2023-03-17T08:16:43.739Z,54.31
2023-03-17T08:19:11.054Z,55.38
2023-03-17T08:21:37.652Z,54.45
2023-03-17T08:24:05.231Z,53.30
2023-03-17T08:26:32.348Z,53.01
2023-03-17T08:28:58.947Z,52.97
2023-03-17T08:31:25.821Z,52.65
2023-03-17T08:33:54.468Z,50.66
2023-03-17T08:36:21.683Z,49.00
2023-03-17T08:38:48.897Z,49.91
2023-03-17T08:41:19.477Z,50.90
2023-03-17T08:43:46.902Z,50.95
2023-03-17T08:46:17.000Z,50.41
2023-03-17T08:48:45.131Z,50.38
2023-03-17T08:51:11.611Z,50.83
2023-03-17T08:53:38.842Z,50.25
2023-03-17T08:56:07.053Z,50.47
2023-03-17T08:58:37.629Z,49.32
2023-03-17T09:01:04.889Z,50.58
2023-03-17T09:03:32.659Z,50.77
2023-03-17T09:05:59.922Z,49.95
2023-03-17T09:08:27.730Z,49.14
2023-03-17T09:10:54.277Z,48.66
2023-03-17T09:13:21.940Z,48.76
2023-03-17T09:15:51.314Z,48.24
2023-03-17T09:18:21.887Z,48.57
2023-03-17T09:20:48.876Z,47.55
2023-03-17T09:23:15.935Z,47.39
2023-03-17T09:25:43.513Z,46.26
2023-03-17T09:28:12.376Z,46.76
2023-03-17T09:30:45.276Z,46.20
2023-03-17T09:33:13.596Z,46.33
2023-03-17T09:35:41.039Z,46.24
2023-03-17T09:38:08.893Z,46.36
2023-03-17T09:41:20.221Z,45.97
2023-03-17T09:43:56.669Z,46.73
2023-03-17T09:46:48.531Z,45.62
2023-03-17T09:49:20.499Z,45.57
2023-03-17T09:51:47.518Z,46.68
2023-03-17T09:54:33.744Z,46.35
2023-03-17T09:57:20.960Z,44.75
2023-03-17T09:59:53.539Z,44.48
2023-03-17T10:02:32.652Z,45.07
2023-03-17T10:05:17.108Z,46.31
2023-03-17T10:08:10.874Z,43.90
2023-03-17T10:11:13.438Z,44.89
2023-03-17T10:14:00.637Z,45.17
2023-03-17T10:16:54.713Z,44.82
2023-03-17T10:19:31.493Z,44.78
2023-03-17T10:22:27.844Z,45.37
2023-03-17T10:25:01.764Z,44.61
2023-03-17T10:27:34.632Z,44.49
2023-03-17T10:30:05.697Z,43.10
2023-03-17T10:32:37.906Z,42.82
2023-03-17T10:35:05.183Z,44.23
2023-03-17T10:37:36.546Z,43.95
2023-03-17T10:40:11.401Z,43.62
2023-03-17T10:42:51.834Z,44.41
2023-03-17T10:45:33.725Z,44.47
2023-03-17T10:48:04.256Z,43.91
2023-03-17T10:50:33.577Z,44.04
2023-03-17T10:53:08.931Z,41.96
2023-03-17T10:55:48.850Z,43.54
2023-03-17T10:58:18.040Z,42.18
2023-03-17T11:01:05.716Z,43.59
2023-03-17T11:03:38.744Z,43.56
2023-03-17T11:06:17.232Z,43.16
2023-03-17T11:08:56.288Z,42.99
2023-03-17T11:11:26.892Z,42.58
2023-03-17T11:14:13.866Z,42.64
2023-03-17T11:16:55.278Z,43.46
2023-03-17T11:19:54.938Z,43.91
2023-03-17T11:22:46.469Z,44.76
2023-03-17T11:25:19.457Z,42.96
2023-03-17T11:27:55.743Z,43.56
2023-03-17T11:30:42.167Z,44.16
2023-03-17T11:33:28.032Z,43.11
2023-03-17T11:36:01.681Z,43.01
2023-03-17T11:38:31.386Z,43.03
2023-03-17T11:41:14.195Z,43.93
2023-03-17T11:44:06.305Z,43.90
2023-03-17T11:46:59.346Z,44.41
2023-03-17T11:49:35.967Z,44.35
2023-03-17T11:52:03.108Z,44.81
2023-03-17T11:54:58.905Z,45.12
2023-03-17T11:57:44.611Z,45.13
2023-03-17T12:00:27.708Z,45.03
2023-03-17T12:03:07.196Z,44.90
2023-03-17T12:05:35.622Z,43.43
2023-03-17T12:08:11.948Z,44.10
2023-03-17T12:10:50.577Z,44.83
2023-03-17T12:13:36.295Z,44.99
2023-03-17T12:16:10.837Z,43.13
2023-03-17T12:18:49.376Z,44.07
2023-03-17T12:21:25.649Z,44.26
2023-03-17T12:24:09.918Z,44.12
2023-03-17T12:27:01.834Z,44.48
2023-03-17T12:29:43.539Z,44.21
2023-03-17T12:32:24.507Z,44.51
2023-03-17T12:34:57.380Z,45.50
2023-03-17T12:37:28.170Z,45.90
2023-03-17T12:40:14.436Z,43.91
2023-03-17T12:43:18.481Z,45.04
2023-03-17T12:45:54.406Z,45.07
2023-03-17T12:48:39.367Z,45.92
2023-03-17T12:51:09.031Z,45.72
2023-03-17T12:53:42.017Z,46.63
2023-03-17T12:56:30.003Z,46.17
2023-03-17T12:59:04.898Z,46.67
2023-03-17T13:01:43.209Z,45.70
2023-03-17T13:04:15.526Z,45.74
2023-03-17T13:06:58.859Z,45.81
2023-03-17T13:09:31.626Z,46.99
2023-03-17T13:12:00.322Z,46.74
2023-03-17T13:14:41.035Z,46.12
2023-03-17T13:17:17.516Z,45.99
2023-03-17T13:20:04.497Z,45.57
2023-03-17T13:22:38.775Z,46.56
2023-03-17T13:25:35.582Z,46.42
2023-03-17T13:28:24.221Z,47.16
2023-03-17T13:31:16.311Z,47.24
2023-03-17T13:33:53.192Z,47.55
2023-03-17T13:36:28.691Z,47.18
2023-03-17T13:39:22.360Z,46.40
2023-03-17T13:42:17.977Z,47.14
2023-03-17T13:45:29.429Z,46.64
2023-03-17T13:48:36.302Z,47.75
2023-03-17T13:51:13.920Z,47.23
2023-03-17T13:53:45.783Z,47.14
2023-03-17T13:56:45.291Z,47.02
2023-03-17T13:59:15.036Z,46.21
2023-03-17T14:01:52.125Z,46.81
2023-03-17T14:04:22.332Z,47.29
2023-03-17T14:06:51.976Z,47.71
2023-03-17T14:09:32.756Z,47.16
2023-03-17T14:12:02.584Z,47.85
2023-03-17T14:14:49.845Z,47.70
2023-03-17T14:17:25.233Z,47.75
2023-03-17T14:20:08.382Z,48.52
2023-03-17T14:22:52.702Z,47.74
2023-03-17T14:25:24.981Z,49.35
2023-03-17T14:27:54.248Z,48.40
2023-03-17T14:30:26.947Z,49.01
2023-03-17T14:33:00.958Z,48.52
2023-03-17T14:35:39.041Z,48.71
2023-03-17T14:38:17.402Z,48.41
2023-03-17T14:40:43.894Z,48.75
2023-03-17T14:43:11.557Z,49.40
2023-03-17T14:45:47.965Z,48.52
2023-03-17T14:48:18.314Z,48.82
2023-03-17T14:50:52.091Z,48.86
2023-03-17T14:53:20.416Z,48.85
2023-03-17T14:55:47.343Z,49.00
2023-03-17T14:58:42.751Z,48.92
2023-03-17T15:01:39.763Z,48.58
2023-03-17T15:04:28.627Z,48.56
2023-03-17T15:06:57.192Z,48.82
2023-03-17T15:09:27.935Z,48.36
2023-03-17T15:11:59.373Z,48.31
2023-03-17T15:14:35.384Z,48.71
2023-03-17T15:17:04.105Z,48.37
2023-03-17T15:19:44.116Z,48.49
2023-03-17T15:22:36.526Z,48.64
2023-03-17T15:25:37.156Z,48.81
2023-03-17T15:28:14.761Z,49.09
2023-03-17T15:30:47.464Z,47.96
2023-03-17T15:33:30.413Z,47.78
2023-03-17T15:36:00.008Z,47.42
2023-03-17T15:38:26.776Z,47.74
2023-03-17T15:40:53.991Z,47.84
2023-03-17T15:43:23.834Z,47.62
2023-03-17T15:46:16.598Z,47.88
2023-03-17T15:48:43.080Z,47.02
2023-03-17T15:51:10.727Z,48.13
2023-03-17T15:53:37.237Z,47.51
2023-03-17T15:56:03.700Z,48.05
2023-03-17T15:58:30.359Z,48.69
2023-03-17T16:00:59.624Z,48.30
2023-03-17T16:03:32.334Z,48.63
2023-03-17T16:05:59.783Z,48.51
2023-03-17T16:08:26.453Z,49.11
2023-03-17T16:10:53.073Z,48.11
2023-03-17T16:13:19.810Z,47.42
2023-03-17T16:16:00.848Z,49.32
2023-03-17T16:18:37.626Z,49.87
2023-03-17T16:21:04.722Z,48.65
2023-03-17T16:23:36.517Z,47.84
2023-03-17T16:26:14.411Z,47.62
2023-03-17T16:28:44.538Z,48.54
2023-03-17T16:31:19.516Z,48.95
2023-03-17T16:33:46.509Z,48.37
2023-03-17T16:36:18.175Z,49.04
2023-03-17T16:38:45.549Z,49.23
2023-03-17T16:41:21.350Z,48.54
2023-03-17T16:43:55.044Z,48.68
2023-03-17T16:46:22.636Z,47.92
2023-03-17T16:48:50.506Z,48.53
2023-03-17T16:51:17.686Z,48.70
2023-03-17T16:53:44.845Z,48.63
2023-03-17T16:56:20.459Z,48.66
2023-03-17T16:58:48.090Z,48.24
2023-03-17T17:01:23.662Z,49.01
2023-03-17T17:03:50.726Z,48.66
2023-03-17T17:06:19.251Z,49.38
2023-03-17T17:08:47.210Z,49.74
2023-03-17T17:11:15.997Z,48.82
2023-03-17T17:13:45.049Z,48.91
2023-03-17T17:16:33.618Z,49.20
2023-03-17T17:19:01.231Z,49.33
2023-03-17T17:21:30.939Z,49.62
2023-03-17T17:23:58.623Z,49.26
2023-03-17T17:26:25.586Z,49.50
2023-03-17T17:28:52.251Z,50.03
2023-03-17T17:31:18.996Z,50.20
2023-03-17T17:33:48.674Z,49.84
2023-03-17T17:36:16.960Z,49.68
2023-03-17T17:38:44.309Z,49.42
2023-03-17T17:41:15.149Z,48.86
2023-03-17T17:43:41.689Z,48.51
2023-03-17T17:46:20.151Z,48.61
2023-03-17T17:48:47.596Z,49.17
2023-03-17T17:51:14.521Z,48.62
2023-03-17T17:53:41.035Z,49.47
2023-03-17T17:56:08.314Z,49.47
2023-03-17T17:58:34.781Z,49.09
2023-03-17T18:01:02.276Z,49.18
2023-03-17T18:03:30.321Z,48.96
2023-03-17T18:05:59.112Z,49.13
2023-03-17T18:08:25.922Z,49.49
2023-03-17T18:10:55.758Z,48.85
2023-03-17T18:13:22.264Z,49.41
2023-03-17T18:15:48.890Z,49.46
2023-03-17T18:18:15.401Z,49.06
2023-03-17T18:20:41.980Z,48.99
2023-03-17T18:23:08.544Z,48.70
2023-03-17T18:25:35.738Z,48.81
2023-03-17T18:28:04.952Z,52.04
2023-03-17T18:30:34.811Z,52.43
2023-03-17T18:33:09.272Z,50.00
2023-03-17T18:35:36.199Z,49.47
2023-03-17T18:38:03.020Z,50.53
2023-03-17T18:40:29.739Z,51.14
2023-03-17T18:42:56.340Z,51.64
2023-03-17T18:45:23.134Z,51.23
2023-03-17T18:47:53.211Z,50.72
2023-03-17T18:50:22.254Z,51.02
2023-03-17T18:52:49.213Z,51.77
2023-03-17T18:55:15.740Z,51.16
2023-03-17T18:57:44.619Z,50.91
2023-03-17T19:00:13.263Z,50.74
2023-03-17T19:02:42.564Z,50.96
2023-03-17T19:05:09.491Z,51.06
2023-03-17T19:07:40.351Z,50.72
2023-03-17T19:10:10.931Z,50.33
2023-03-17T19:12:38.140Z,50.34
2023-03-17T19:15:06.613Z,50.23
2023-03-17T19:17:33.711Z,50.29
2023-03-17T19:20:00.264Z,50.88
2023-03-17T19:22:27.048Z,50.96
2023-03-17T19:24:53.620Z,50.21
2023-03-17T19:27:20.116Z,49.18
2023-03-17T19:29:46.621Z,50.37
2023-03-17T19:32:13.285Z,50.32
2023-03-17T19:34:39.872Z,50.61
2023-03-17T19:37:06.451Z,51.42
2023-03-17T19:39:33.877Z,51.88
2023-03-17T19:42:00.962Z,51.32
2023-03-17T19:44:27.530Z,52.16
2023-03-17T19:46:54.043Z,52.59
2023-03-17T19:49:21.316Z,52.35
2023-03-17T19:51:49.028Z,53.75
2023-03-17T19:54:15.762Z,52.09
2023-03-17T19:56:42.549Z,52.23
2023-03-17T19:59:09.363Z,52.38
2023-03-17T20:01:37.848Z,52.27
2023-03-17T20:04:06.957Z,52.19
2023-03-17T20:06:34.543Z,51.88
2023-03-17T20:09:03.867Z,52.17
2023-03-17T20:11:33.804Z,51.98
2023-03-17T20:14:02.120Z,52.57
2023-03-17T20:16:31.811Z,53.44
2023-03-17T20:18:58.346Z,53.50
2023-03-17T20:21:24.857Z,53.01
2023-03-17T20:23:51.538Z,52.66
2023-03-17T20:26:19.031Z,52.53
2023-03-17T20:28:46.403Z,53.02
2023-03-17T20:31:13.352Z,53.12
2023-03-17T20:33:40.028Z,53.02
2023-03-17T20:36:06.868Z,52.80
2023-03-17T20:38:36.857Z,52.84
2023-03-17T20:41:14.958Z,53.86
2023-03-17T20:43:41.803Z,53.31
2023-03-17T20:46:13.714Z,53.07
2023-03-17T20:48:40.149Z,53.37
2023-03-17T20:51:09.355Z,52.47
2023-03-17T20:53:36.228Z,51.81
2023-03-17T20:56:02.998Z,51.23
2023-03-17T20:58:30.448Z,51.25
2023-03-17T21:00:58.443Z,52.26
2023-03-17T21:03:25.270Z,52.56
2023-03-17T21:05:53.460Z,52.04
2023-03-17T21:08:19.993Z,52.27
2023-03-17T21:10:46.652Z,52.09
2023-03-17T21:13:13.357Z,52.48
2023-03-17T21:15:41.091Z,52.45
2023-03-17T21:18:07.683Z,52.33
2023-03-17T21:20:37.583Z,52.08
2023-03-17T21:23:07.657Z,52.49
2023-03-17T21:25:41.773Z,52.93
2023-03-17T21:28:08.238Z,53.24
2023-03-17T21:30:36.984Z,53.07
2023-03-17T21:33:05.925Z,53.06
2023-03-17T21:35:34.727Z,53.21
2023-03-17T21:38:01.941Z,52.39
2023-03-17T21:40:32.757Z,53.10
2023-03-17T21:43:06.722Z,52.74
2023-03-17T21:45:33.379Z,52.80
2023-03-17T21:48:06.575Z,53.24
2023-03-17T21:50:36.770Z,53.01
2023-03-17T21:53:04.545Z,53.03
2023-03-17T21:55:31.306Z,52.11
2023-03-17T21:57:58.990Z,52.44
2023-03-17T22:00:35.940Z,52.66
2023-03-17T22:03:09.372Z,53.14
2023-03-17T22:05:36.095Z,52.72
2023-03-17T22:08:05.555Z,52.79
2023-03-17T22:10:32.623Z,51.89
2023-03-17T22:12:59.224Z,51.86
2023-03-17T22:15:31.077Z,51.94
2023-03-17T22:17:57.652Z,52.03
2023-03-17T22:20:24.308Z,52.29
2023-03-17T22:22:51.365Z,52.54
2023-03-17T22:25:23.307Z,52.74
2023-03-17T22:27:55.965Z,53.30
2023-03-17T22:30:22.973Z,52.68
2023-03-17T22:32:53.049Z,52.99
2023-03-17T22:35:20.931Z,52.62
2023-03-17T22:37:47.400Z,53.24
2023-03-17T22:40:14.804Z,52.82
2023-03-17T22:42:41.496Z,53.15
2023-03-17T22:45:08.523Z,53.30
2023-03-17T22:47:35.023Z,53.42
2023-03-17T22:50:01.518Z,53.64
2023-03-17T22:52:28.084Z,54.17
2023-03-17T22:54:54.591Z,53.96
2023-03-17T22:57:21.194Z,53.69
2023-03-17T22:59:47.713Z,53.97
2023-03-17T23:02:16.228Z,53.79
2023-03-17T23:04:46.962Z,54.04
2023-03-17T23:07:14.927Z,54.00
2023-03-17T23:09:45.201Z,54.05
2023-03-17T23:12:12.566Z,54.32
2023-03-17T23:14:40.046Z,54.26
2023-03-17T23:17:09.454Z,54.79
2023-03-17T23:19:36.244Z,54.50
2023-03-17T23:22:02.964Z,54.45
2023-03-17T23:24:29.436Z,55.33
2023-03-17T23:26:58.836Z,55.36
2023-03-17T23:29:25.308Z,55.30
2023-03-17T23:31:52.056Z,54.85
2023-03-17T23:34:19.123Z,54.94
2023-03-17T23:36:50.565Z,54.89
2023-03-17T23:39:17.069Z,54.40
2023-03-17T23:41:44.899Z,54.28
2023-03-17T23:44:11.687Z,54.64
2023-03-17T23:46:41.704Z,54.24
2023-03-17T23:49:08.311Z,54.20
2023-03-17T23:51:35.499Z,54.29
2023-03-17T23:54:02.018Z,54.79
2023-03-17T23:56:28.487Z,55.64
2023-03-17T23:58:55.895Z,55.73
